Time;durP1;ratioP1;P1;durP2;ratioP2;P2;SDS_P1;SDS_P2;PMS_P1;PMS_P2;Temp;Humidity;BMP_temperature;BMP_pressure;BME280_temperature;BME280_humidity;BME280_pressure;Samples;Min_cycle;Max_cycle;Signal;HPM_P1;HPM_P2
2022/06/26 00:01:41;;;;;;;163.37;153.40;;;16.50;86.70;;;;;;5003889;28;20041;-67
2022/06/26 00:04:12;;;;;;;201.37;189.93;;;16.60;86.60;;;;;;5003483;28;20293;-67
2022/06/26 00:06:38;;;;;;;278.63;261.97;;;16.50;86.70;;;;;;4999720;28;20293;-67
2022/06/26 00:09:05;;;;;;;307.50;289.40;;;16.50;87.10;;;;;;4981467;28;20348;-67
2022/06/26 00:11:30;;;;;;;239.07;225.23;;;16.40;88.80;;;;;;5008549;28;20445;-67
2022/06/26 00:13:56;;;;;;;209.73;197.03;;;16.30;89.60;;;;;;5004095;28;20338;-67
2022/06/26 00:16:22;;;;;;;216.63;203.80;;;16.30;89.40;;;;;;5016730;28;20045;-67
2022/06/26 00:18:49;;;;;;;227.13;212.47;;;16.40;89.30;;;;;;4991447;28;20034;-67
2022/06/26 00:21:14;;;;;;;200.77;187.73;;;16.40;89.60;;;;;;5020479;28;20285;-67
2022/06/26 00:23:40;;;;;;;181.00;169.53;;;16.40;89.60;;;;;;5007683;28;20297;-67
2022/06/26 00:26:06;;;;;;;174.70;163.60;;;16.40;89.50;;;;;;4990158;28;20038;-67
2022/06/26 00:28:31;;;;;;;148.80;139.97;;;16.40;89.70;;;;;;5008133;28;20089;-68
2022/06/26 00:30:57;;;;;;;128.17;120.50;;;16.40;89.40;;;;;;5007679;28;20038;-67
2022/06/26 00:33:23;;;;;;;165.73;156.03;;;16.40;89.00;;;;;;5007417;28;20125;-67
2022/06/26 00:35:49;;;;;;;171.50;161.97;;;16.40;88.20;;;;;;5000561;28;20038;-67
2022/06/26 00:38:15;;;;;;;181.50;170.77;;;16.40;88.20;;;;;;5005477;28;20050;-68
2022/06/26 00:40:42;;;;;;;155.77;147.17;;;16.40;88.10;;;;;;5006259;28;20285;-67
2022/06/26 00:43:08;;;;;;;149.07;140.63;;;16.50;88.20;;;;;;5001746;28;20042;-67
2022/06/26 00:45:34;;;;;;;153.77;144.93;;;16.50;88.40;;;;;;5007416;28;20346;-67
2022/06/26 00:48:00;;;;;;;159.03;149.93;;;16.50;88.10;;;;;;5007158;28;20726;-68
2022/06/26 00:50:26;;;;;;;95.60;89.70;;;16.50;88.10;;;;;;4987571;28;20336;-68
2022/06/26 00:52:53;;;;;;;157.77;148.63;;;16.40;88.40;;;;;;5005623;28;20119;-68
2022/06/26 00:55:20;;;;;;;86.67;81.70;;;16.40;88.40;;;;;;5006622;28;20058;-68
2022/06/26 00:57:46;;;;;;;109.37;103.10;;;16.40;88.50;;;;;;4989500;28;20665;-67
2022/06/26 01:00:13;;;;;;;149.03;140.73;;;16.40;88.70;;;;;;4988684;28;20312;-68
2022/06/26 01:02:40;;;;;;;75.03;70.70;;;16.50;88.50;;;;;;5006885;28;20829;-68
2022/06/26 01:05:07;;;;;;;121.10;114.40;;;16.50;88.50;;;;;;5006363;28;20297;-68
2022/06/26 01:07:32;;;;;;;153.80;145.57;;;16.50;88.40;;;;;;5003558;28;20301;-68
2022/06/26 01:09:58;;;;;;;117.97;111.67;;;16.60;88.60;;;;;;5014344;28;20289;-68
2022/06/26 01:12:24;;;;;;;87.30;81.87;;;16.60;88.50;;;;;;5004503;28;20169;-67
2022/06/26 01:14:51;;;;;;;98.53;92.80;;;16.60;88.50;;;;;;5004297;28;20041;-67
2022/06/26 01:17:17;;;;;;;195.47;185.13;;;16.60;88.70;;;;;;5006431;28;20509;-67
2022/06/26 01:19:44;;;;;;;126.47;119.60;;;16.60;88.90;;;;;;5003710;28;20300;-67
2022/06/26 01:22:10;;;;;;;123.47;116.83;;;16.70;89.10;;;;;;5006189;28;20289;-67
2022/06/26 01:24:36;;;;;;;109.03;103.10;;;16.70;89.10;;;;;;4990267;28;20288;-67
2022/06/26 01:27:02;;;;;;;122.60;115.80;;;16.70;89.20;;;;;;5005703;28;20132;-67
2022/06/26 01:29:27;;;;;;;107.43;101.47;;;16.70;89.30;;;;;;5006752;28;20073;-67
2022/06/26 01:31:53;;;;;;;126.57;119.63;;;16.70;89.20;;;;;;4987648;28;20324;-67
2022/06/26 01:34:19;;;;;;;139.90;132.40;;;16.70;89.00;;;;;;5001337;28;20125;-67
2022/06/26 01:36:44;;;;;;;150.17;141.70;;;16.70;89.00;;;;;;5019300;28;20041;-67
2022/06/26 01:39:10;;;;;;;114.07;108.00;;;16.80;89.10;;;;;;5006427;28;20045;-67
2022/06/26 01:41:36;;;;;;;127.70;120.93;;;16.80;89.00;;;;;;4985259;28;20046;-67
2022/06/26 01:44:02;;;;;;;205.47;194.73;;;16.80;89.20;;;;;;4999361;28;20091;-67
2022/06/26 01:46:28;;;;;;;102.90;97.07;;;16.80;89.20;;;;;;4990041;28;20081;-67
2022/06/26 01:48:54;;;;;;;91.23;86.23;;;16.80;89.20;;;;;;5006145;28;20328;-67
2022/06/26 01:51:20;;;;;;;207.77;196.37;;;16.80;89.20;;;;;;4998650;28;20087;-67
2022/06/26 01:53:46;;;;;;;143.57;135.63;;;16.80;89.30;;;;;;5005581;28;20157;-67
2022/06/26 01:56:12;;;;;;;210.60;199.40;;;16.80;89.20;;;;;;5005441;28;20375;-67
2022/06/26 01:58:37;;;;;;;166.27;157.33;;;16.80;89.20;;;;;;5005316;28;20042;-67
2022/06/26 02:01:08;;;;;;;182.23;172.43;;;16.80;89.10;;;;;;5005469;28;20292;-67
2022/06/26 02:03:34;;;;;;;161.40;152.77;;;16.80;89.20;;;;;;4987203;28;20052;-67
2022/06/26 02:06:00;;;;;;;156.73;147.97;;;16.80;89.10;;;;;;5004857;28;21411;-67
2022/06/26 02:08:26;;;;;;;124.13;117.23;;;16.90;89.00;;;;;;5004264;28;20289;-67
2022/06/26 02:13:36;;;;;;;144.73;136.68;;;16.90;88.90;;;;;;5005297;28;20044;-67
2022/06/26 02:16:09;;;;;;;104.87;99.07;;;16.90;89.20;;;;;;5014855;28;20034;-67
2022/06/26 02:18:35;;;;;;;185.13;175.23;;;16.90;89.00;;;;;;5015256;28;20045;-67
2022/06/26 02:21:01;;;;;;;137.57;129.87;;;16.90;89.20;;;;;;5004875;28;20288;-68
2022/06/26 02:23:27;;;;;;;156.97;148.27;;;16.90;89.30;;;;;;5001795;28;20327;-67
2022/06/26 02:25:54;;;;;;;152.23;143.63;;;16.90;89.40;;;;;;4986333;28;20426;-67
2022/06/26 02:28:19;;;;;;;174.27;164.73;;;16.90;89.60;;;;;;5002939;28;20288;-67
2022/06/26 02:30:46;;;;;;;158.17;149.47;;;16.90;89.40;;;;;;5002161;28;20408;-67
2022/06/26 02:33:12;;;;;;;128.53;121.37;;;17.00;89.50;;;;;;5005579;28;20081;-68
2022/06/26 02:35:37;;;;;;;164.47;155.03;;;17.00;89.60;;;;;;5002106;28;20301;-67
2022/06/26 02:38:03;;;;;;;177.73;167.67;;;17.00;89.90;;;;;;5004586;28;20816;-67
2022/06/26 02:40:31;;;;;;;178.80;168.87;;;17.00;89.80;;;;;;5005849;28;20045;-67
2022/06/26 02:42:57;;;;;;;195.23;184.63;;;17.00;90.20;;;;;;5004957;28;20099;-67
2022/06/26 02:45:24;;;;;;;171.60;162.30;;;17.00;90.60;;;;;;4986889;28;20375;-67
2022/06/26 02:47:50;;;;;;;195.47;184.83;;;17.00;90.70;;;;;;4999440;28;20312;-68
2022/06/26 02:50:16;;;;;;;198.00;187.40;;;17.00;90.80;;;;;;5005167;28;20293;-68
2022/06/26 02:52:43;;;;;;;169.40;160.23;;;17.00;90.90;;;;;;5002633;28;20050;-68
2022/06/26 02:55:09;;;;;;;215.23;203.40;;;17.00;91.10;;;;;;5002375;28;20341;-67
2022/06/26 02:57:35;;;;;;;200.57;190.13;;;16.90;91.60;;;;;;4999546;28;20293;-68
2022/06/26 03:00:00;;;;;;;215.87;204.50;;;16.80;92.00;;;;;;5004408;28;20352;-68
2022/06/26 03:02:26;;;;;;;148.13;139.97;;;16.70;92.50;;;;;;5004605;28;20068;-68
2022/06/26 03:04:53;;;;;;;186.30;176.67;;;16.70;92.40;;;;;;4989951;28;20656;-68
2022/06/26 03:07:20;;;;;;;159.17;150.57;;;16.70;92.60;;;;;;4983906;28;20069;-67
2022/06/26 03:09:46;;;;;;;156.40;147.97;;;16.60;92.80;;;;;;5003977;28;20293;-67
2022/06/26 03:12:12;;;;;;;160.77;152.17;;;16.60;93.00;;;;;;5003566;28;20292;-68
2022/06/26 03:14:38;;;;;;;158.53;149.73;;;16.60;93.30;;;;;;5001454;28;20739;-68
2022/06/26 03:17:04;;;;;;;167.53;158.23;;;16.60;93.50;;;;;;5004111;28;20375;-67
2022/06/26 03:19:30;;;;;;;140.07;132.43;;;16.60;93.70;;;;;;4982387;28;20418;-67
2022/06/26 03:21:56;;;;;;;138.50;130.87;;;16.60;93.50;;;;;;5003795;28;20281;-67
2022/06/26 03:24:22;;;;;;;148.40;140.03;;;16.60;93.30;;;;;;5011623;28;20312;-67
2022/06/26 03:26:48;;;;;;;173.50;163.93;;;16.60;93.30;;;;;;5001156;28;20292;-67
2022/06/26 03:29:14;;;;;;;159.77;150.90;;;16.60;93.30;;;;;;5003364;28;20311;-67
2022/06/26 03:31:40;;;;;;;173.63;164.37;;;16.60;93.20;;;;;;5000309;28;20049;-67
2022/06/26 03:34:06;;;;;;;105.03;98.73;;;16.60;93.00;;;;;;5002127;28;20064;-67
2022/06/26 03:36:33;;;;;;;120.43;113.60;;;16.60;93.00;;;;;;4999557;28;20288;-67
2022/06/26 03:38:59;;;;;;;146.23;138.17;;;16.70;92.90;;;;;;4999506;28;20304;-67
2022/06/26 03:41:26;;;;;;;168.13;158.57;;;16.70;93.20;;;;;;5002498;28;20289;-68
2022/06/26 03:43:51;;;;;;;137.27;129.47;;;16.70;93.50;;;;;;5008830;28;20284;-68
2022/06/26 03:46:17;;;;;;;150.77;142.57;;;16.70;93.30;;;;;;5000992;28;20859;-68
2022/06/26 03:48:43;;;;;;;145.77;137.60;;;16.80;93.30;;;;;;4997522;28;20050;-68
2022/06/26 03:51:09;;;;;;;117.87;111.00;;;16.80;93.30;;;;;;4987005;28;20311;-68
2022/06/26 03:53:35;;;;;;;155.50;146.37;;;16.80;93.20;;;;;;4998471;28;21255;-68
2022/06/26 03:56:01;;;;;;;129.70;121.93;;;16.80;93.10;;;;;;4989332;28;20041;-68
2022/06/26 03:58:27;;;;;;;190.17;179.67;;;16.80;93.20;;;;;;5001523;28;20286;-68
2022/06/26 04:00:53;;;;;;;128.43;120.87;;;16.80;93.20;;;;;;5001344;28;20300;-68
2022/06/26 04:03:20;;;;;;;138.50;130.70;;;16.80;93.10;;;;;;5007279;28;20136;-68
2022/06/26 04:05:46;;;;;;;133.27;125.03;;;16.80;93.10;;;;;;5006701;28;20053;-68
2022/06/26 04:08:12;;;;;;;155.37;146.03;;;16.80;93.30;;;;;;5000080;28;20657;-68
2022/06/26 04:10:38;;;;;;;148.50;139.60;;;16.70;93.30;;;;;;5007759;28;20299;-68
2022/06/26 04:13:06;;;;;;;153.33;144.00;;;16.80;93.40;;;;;;5005774;28;20042;-67
2022/06/26 04:15:34;;;;;;;167.90;157.80;;;16.70;93.30;;;;;;5006381;28;20747;-67
2022/06/26 04:18:00;;;;;;;182.53;171.57;;;16.70;93.20;;;;;;5004840;28;20689;-67
2022/06/26 04:20:26;;;;;;;130.37;121.40;;;16.70;93.40;;;;;;5004972;28;20285;-67
2022/06/26 04:23:11;;;;;;;148.33;138.83;;;16.70;93.60;;;;;;5005970;28;20315;-67
2022/06/26 04:25:38;;;;;;;163.52;153.23;;;16.80;93.50;;;;;;5006880;28;20054;-67
2022/06/26 04:28:05;;;;;;;174.07;163.20;;;16.80;93.60;;;;;;5002604;28;20042;-67
2022/06/26 04:30:31;;;;;;;143.10;133.50;;;16.80;93.80;;;;;;5006201;28;20796;-67
2022/06/26 04:32:57;;;;;;;167.73;156.60;;;16.80;93.70;;;;;;4986072;28;20865;-67
2022/06/26 04:35:24;;;;;;;181.77;170.53;;;16.80;93.70;;;;;;5004741;28;20383;-67
2022/06/26 04:37:50;;;;;;;192.10;180.17;;;16.80;93.60;;;;;;5002226;28;20073;-67
2022/06/26 04:40:15;;;;;;;151.50;141.53;;;16.90;93.60;;;;;;5002890;28;20289;-67
2022/06/26 04:42:42;;;;;;;157.63;147.07;;;16.90;93.60;;;;;;4985614;28;20343;-67
2022/06/26 04:45:09;;;;;;;194.77;182.23;;;16.90;93.60;;;;;;4985132;28;20065;-67
2022/06/26 04:47:35;;;;;;;201.60;189.03;;;17.00;93.60;;;;;;5005766;28;20372;-67
2022/06/26 04:50:01;;;;;;;168.13;156.83;;;17.00;93.50;;;;;;5006619;28;20289;-67
2022/06/26 04:52:27;;;;;;;172.63;161.03;;;17.10;93.40;;;;;;5006235;28;20052;-67
2022/06/26 04:54:52;;;;;;;157.77;147.17;;;17.10;93.20;;;;;;5002889;28;20116;-67
2022/06/26 04:57:18;;;;;;;186.50;174.43;;;17.10;93.30;;;;;;4986275;28;20092;-67
2022/06/26 04:59:44;;;;;;;200.50;187.40;;;17.20;93.20;;;;;;5005416;28;20448;-67
2022/06/26 05:02:10;;;;;;;205.30;192.23;;;17.30;93.00;;;;;;4999141;28;20050;-67
2022/06/26 05:04:37;;;;;;;238.53;223.83;;;17.30;92.70;;;;;;5003205;28;20038;-66
2022/06/26 05:07:03;;;;;;;197.17;185.00;;;17.30;92.40;;;;;;5004924;28;20290;-67
2022/06/26 05:09:28;;;;;;;212.27;198.33;;;17.20;92.20;;;;;;5000495;28;20303;-67
2022/06/26 05:11:54;;;;;;;190.33;177.80;;;17.30;92.40;;;;;;5004032;28;20789;-67
2022/06/26 05:14:20;;;;;;;185.17;172.53;;;17.30;92.40;;;;;;4988810;28;20046;-67
2022/06/26 05:16:46;;;;;;;215.90;202.20;;;17.30;92.70;;;;;;5002388;28;20144;-67
2022/06/26 05:19:12;;;;;;;215.60;202.23;;;17.40;92.70;;;;;;5005541;28;20900;-67
2022/06/26 05:21:37;;;;;;;170.20;158.93;;;17.40;92.50;;;;;;5005619;28;20044;-67
2022/06/26 05:24:04;;;;;;;206.20;193.07;;;17.40;92.50;;;;;;5004508;28;20034;-67
2022/06/26 05:26:29;;;;;;;182.67;170.37;;;17.40;92.10;;;;;;5004223;28;20383;-67
2022/06/26 05:28:55;;;;;;;179.63;167.27;;;17.40;92.20;;;;;;4996614;28;20293;-67
2022/06/26 05:31:21;;;;;;;180.57;168.73;;;17.40;92.10;;;;;;4988016;28;20100;-67
2022/06/26 05:33:47;;;;;;;225.03;210.67;;;17.40;92.20;;;;;;5005389;28;20535;-67
2022/06/26 05:36:14;;;;;;;215.87;202.17;;;17.40;91.90;;;;;;5004629;28;20773;-67
2022/06/26 05:38:40;;;;;;;201.20;188.30;;;17.30;91.50;;;;;;5004521;28;20300;-67
2022/06/26 05:41:06;;;;;;;150.90;140.50;;;17.40;91.60;;;;;;5005986;28;20568;-67
2022/06/26 05:43:31;;;;;;;178.60;166.73;;;17.40;91.60;;;;;;4983697;28;20277;-67
2022/06/26 05:45:58;;;;;;;168.97;157.60;;;17.40;91.40;;;;;;5004859;28;20285;-67
2022/06/26 05:48:24;;;;;;;204.50;191.63;;;17.50;91.70;;;;;;5003279;28;20037;-67
2022/06/26 05:50:50;;;;;;;246.80;231.77;;;17.50;91.20;;;;;;4983371;28;20329;-67
2022/06/26 05:53:17;;;;;;;223.47;209.63;;;17.40;90.60;;;;;;5004405;28;20284;-67
2022/06/26 05:55:42;;;;;;;252.93;237.77;;;17.50;90.40;;;;;;5005597;28;20751;-67
2022/06/26 05:58:08;;;;;;;238.37;224.10;;;17.40;89.00;;;;;;4987658;28;20359;-67
2022/06/26 06:00:35;;;;;;;252.97;237.83;;;17.40;89.20;;;;;;5005120;28;20033;-66
2022/06/26 06:03:01;;;;;;;175.23;164.27;;;17.40;89.30;;;;;;5001914;28;20137;-66
2022/06/26 06:05:27;;;;;;;165.53;155.00;;;17.40;89.50;;;;;;5004712;28;20396;-67
2022/06/26 06:07:53;;;;;;;202.13;189.83;;;17.40;88.70;;;;;;5004306;28;20289;-67
2022/06/26 06:10:19;;;;;;;205.50;193.50;;;17.50;88.20;;;;;;5004464;28;20152;-67
2022/06/26 06:12:49;;;;;;;229.70;216.33;;;17.60;87.90;;;;;;5003552;28;20297;-66
2022/06/26 06:15:15;;;;;;;200.10;188.67;;;17.60;86.10;;;;;;4982956;28;20301;-66
2022/06/26 06:17:41;;;;;;;164.10;153.87;;;17.60;86.50;;;;;;5003614;28;20419;-66
2022/06/26 06:20:21;;;;;;;204.17;192.30;;;17.90;85.50;;;;;;5004781;28;20038;-66
2022/06/26 06:22:53;;;;;;;180.33;169.87;;;18.20;85.00;;;;;;5003736;28;20087;-66
2022/06/26 06:25:19;;;;;;;224.70;211.37;;;18.90;83.90;;;;;;5004576;28;20296;-66
2022/06/26 06:27:46;;;;;;;184.93;174.10;;;19.60;81.00;;;;;;5004504;28;20288;-66
2022/06/26 06:30:12;;;;;;;225.83;213.30;;;20.30;78.70;;;;;;5003197;28;20784;-66
2022/06/26 06:32:40;;;;;;;309.33;291.07;;;20.90;75.80;;;;;;5001931;28;20314;-66
2022/06/26 06:35:06;;;;;;;196.70;185.83;;;21.30;70.10;;;;;;5003032;28;20647;-67
2022/06/26 06:37:32;;;;;;;227.60;215.43;;;21.80;70.40;;;;;;5003614;28;20382;-67
2022/06/26 06:39:58;;;;;;;262.30;248.13;;;22.20;68.10;;;;;;5004268;28;20507;-66
2022/06/26 06:42:24;;;;;;;228.80;216.40;;;22.40;66.90;;;;;;5000527;28;20049;-66
2022/06/26 06:44:50;;;;;;;243.70;230.07;;;22.10;66.40;;;;;;4995048;28;20573;-66
2022/06/26 06:47:16;;;;;;;283.43;267.23;;;21.60;66.60;;;;;;5003632;28;20136;-66
2022/06/26 06:49:42;;;;;;;243.73;230.47;;;20.90;67.90;;;;;;5003720;28;20045;-66
2022/06/26 06:52:07;;;;;;;251.00;237.23;;;20.80;69.00;;;;;;5000833;28;20041;-66
2022/06/26 06:54:34;;;;;;;242.33;228.93;;;21.00;69.80;;;;;;5002986;28;20046;-66
2022/06/26 06:57:00;;;;;;;274.37;259.40;;;21.30;69.20;;;;;;5003767;28;20046;-67
2022/06/26 06:59:26;;;;;;;215.13;203.57;;;21.50;68.30;;;;;;5003954;28;20064;-67
2022/06/26 07:01:52;;;;;;;256.73;242.83;;;21.60;68.90;;;;;;5004015;28;20513;-67
2022/06/26 07:04:18;;;;;;;288.43;272.97;;;21.50;69.10;;;;;;5003524;28;20526;-67
2022/06/26 07:06:44;;;;;;;271.60;256.17;;;21.30;68.90;;;;;;5001019;28;20065;-66
2022/06/26 07:09:11;;;;;;;213.80;201.97;;;20.70;69.10;;;;;;5001003;28;20045;-66
2022/06/26 07:11:38;;;;;;;242.73;229.47;;;20.60;70.70;;;;;;4994842;28;20045;-66
2022/06/26 07:14:04;;;;;;;292.37;275.50;;;20.80;71.60;;;;;;4995486;28;20073;-66
2022/06/26 07:16:29;;;;;;;377.87;356.23;;;20.70;71.00;;;;;;5002043;28;20430;-66
2022/06/26 07:18:55;;;;;;;291.23;274.87;;;20.20;70.60;;;;;;5003056;28;20137;-66
2022/06/26 07:21:21;;;;;;;302.27;285.27;;;20.10;70.70;;;;;;5002919;28;20049;-66
2022/06/26 07:23:47;;;;;;;306.97;290.07;;;19.80;71.10;;;;;;5002701;28;20117;-66
2022/06/26 07:26:13;;;;;;;265.43;250.77;;;19.50;71.40;;;;;;4992954;28;20582;-66
2022/06/26 07:28:39;;;;;;;261.60;247.30;;;19.40;72.60;;;;;;5000640;28;20121;-67
2022/06/26 07:31:04;;;;;;;267.97;253.13;;;19.50;73.60;;;;;;5003693;28;20052;-67
2022/06/26 07:36:14;;;;;;;228.17;215.17;;;20.00;73.30;;;;;;5006684;28;20046;-66
2022/06/26 07:38:40;;;;;;;280.83;265.50;;;20.40;72.90;;;;;;4994918;28;20053;-66
2022/06/26 07:41:06;;;;;;;261.17;246.37;;;20.60;71.90;;;;;;5004575;28;20120;-67
2022/06/26 07:43:31;;;;;;;256.90;242.67;;;20.70;70.10;;;;;;4986013;28;20349;-67
2022/06/26 07:45:57;;;;;;;238.17;224.73;;;20.90;70.90;;;;;;5003596;28;20038;-67
2022/06/26 07:48:23;;;;;;;397.77;374.03;;;20.70;69.50;;;;;;5001843;28;20045;-67
2022/06/26 07:50:49;;;;;;;315.67;297.80;;;20.50;67.50;;;;;;5002212;28;20045;-67
2022/06/26 07:53:15;;;;;;;291.17;275.07;;;20.40;68.60;;;;;;4984522;28;20121;-67
2022/06/26 07:55:41;;;;;;;299.40;282.73;;;20.10;68.80;;;;;;4983126;28;20528;-67
2022/06/26 07:58:07;;;;;;;287.37;271.27;;;19.90;69.20;;;;;;5000838;28;20573;-67
2022/06/26 08:00:33;;;;;;;193.03;182.53;;;20.00;70.20;;;;;;4998217;28;20097;-67
2022/06/26 08:03:11;;;;;;;268.23;253.47;;;20.20;70.40;;;;;;5002598;28;20124;-67
2022/06/26 08:05:37;;;;;;;241.63;227.87;;;20.40;68.90;;;;;;4986636;28;20398;-67
2022/06/26 08:08:04;;;;;;;313.40;295.67;;;20.70;68.70;;;;;;5002554;28;20456;-67
2022/06/26 08:10:30;;;;;;;334.60;315.63;;;20.90;68.40;;;;;;4999575;28;20049;-67
2022/06/26 08:12:56;;;;;;;298.60;281.73;;;21.00;66.80;;;;;;4995521;28;20050;-67
2022/06/26 08:15:23;;;;;;;305.97;289.07;;;20.90;67.50;;;;;;5002733;28;20114;-67
2022/06/26 08:17:49;;;;;;;381.33;359.13;;;20.90;68.00;;;;;;5003004;28;20226;-67
2022/06/26 08:20:15;;;;;;;276.43;261.40;;;20.90;66.60;;;;;;4986349;28;20293;-67
2022/06/26 08:22:40;;;;;;;360.73;340.53;;;21.20;68.40;;;;;;4999490;28;20050;-67
2022/06/26 08:25:07;;;;;;;314.27;296.47;;;21.50;66.40;;;;;;5003422;28;20450;-67
2022/06/26 08:27:32;;;;;;;394.73;371.40;;;21.30;65.70;;;;;;5001795;28;20054;-67
2022/06/26 08:29:58;;;;;;;405.87;381.83;;;21.10;66.30;;;;;;5004576;28;20111;-67
2022/06/26 08:32:24;;;;;;;355.93;336.10;;;20.70;66.50;;;;;;5002560;28;20564;-67
2022/06/26 08:34:50;;;;;;;331.00;312.00;;;20.70;68.00;;;;;;5004528;28;20157;-67
2022/06/26 08:37:16;;;;;;;311.23;293.30;;;20.80;68.10;;;;;;4987163;28;20168;-67
2022/06/26 08:39:43;;;;;;;258.60;244.53;;;21.10;66.60;;;;;;5003819;28;20818;-67
2022/06/26 08:42:09;;;;;;;272.43;258.60;;;21.40;65.00;;;;;;5005924;28;20042;-67
2022/06/26 08:44:40;;;;;;;278.53;264.63;;;21.60;64.20;;;;;;5004973;28;20042;-67
2022/06/26 08:47:07;;;;;;;282.33;267.43;;;21.80;64.50;;;;;;4982820;28;20038;-67
2022/06/26 08:49:32;;;;;;;298.33;282.27;;;22.10;64.50;;;;;;5000380;28;20042;-67
2022/06/26 08:51:59;;;;;;;291.83;276.03;;;22.20;63.80;;;;;;4985638;28;20111;-67
2022/06/26 08:54:28;;;;;;;303.53;287.17;;;21.90;63.20;;;;;;5000630;28;20100;-67
2022/06/26 08:56:54;;;;;;;309.80;293.73;;;22.10;64.80;;;;;;5006166;28;20562;-67
2022/06/26 08:59:20;;;;;;;272.43;258.37;;;22.10;64.40;;;;;;5000294;28;20100;-66
2022/06/26 09:01:46;;;;;;;316.73;299.33;;;22.00;63.30;;;;;;4996361;28;20064;-66
2022/06/26 09:04:13;;;;;;;253.83;239.97;;;22.20;63.70;;;;;;5001093;28;20398;-66
2022/06/26 09:06:40;;;;;;;327.93;309.67;;;22.10;63.60;;;;;;5004957;28;20088;-66
2022/06/26 09:09:24;;;;;;;261.13;247.47;;;22.20;60.70;;;;;;5004949;28;20132;-66
2022/06/26 09:11:52;;;;;;;243.67;230.40;;;22.30;61.60;;;;;;5015915;28;20564;-66
2022/06/26 09:14:17;;;;;;;322.67;306.07;;;22.40;61.20;;;;;;5003452;28;20085;-67
2022/06/26 09:16:47;;;;;;;280.87;265.97;;;22.50;61.20;;;;;;5019116;28;20076;-67
2022/06/26 09:19:19;;;;;;;296.53;281.13;;;22.60;61.10;;;;;;5005656;28;20042;-67
2022/06/26 09:21:48;;;;;;;178.87;168.87;;;22.80;60.60;;;;;;5006357;28;20747;-67
2022/06/26 09:24:16;;;;;;;279.40;265.13;;;22.90;60.30;;;;;;4989175;28;20042;-67
2022/06/26 09:26:43;;;;;;;265.43;251.80;;;23.00;60.00;;;;;;5005194;28;20076;-67
2022/06/26 09:29:15;;;;;;;310.93;294.57;;;23.30;60.10;;;;;;4989462;28;20125;-67
2022/06/26 09:31:41;;;;;;;333.73;316.37;;;23.60;60.60;;;;;;4989139;28;20565;-67
2022/06/26 09:34:19;;;;;;;263.30;249.87;;;23.90;60.10;;;;;;4987532;28;20056;-67
2022/06/26 09:36:58;;;;;;;287.30;272.43;;;24.10;58.90;;;;;;5017950;28;20041;-67
2022/06/26 09:39:29;;;;;;;326.13;309.63;;;24.10;59.00;;;;;;5005129;28;20522;-67
2022/06/26 09:41:55;;;;;;;297.40;282.20;;;24.00;58.90;;;;;;5018842;28;20045;-67
2022/06/26 09:44:21;;;;;;;370.00;351.43;;;24.10;58.50;;;;;;5004306;28;20093;-67
2022/06/26 09:46:47;;;;;;;320.90;305.10;;;24.20;57.90;;;;;;5005490;28;20558;-67
2022/06/26 09:49:13;;;;;;;332.40;315.53;;;23.90;57.10;;;;;;5005201;28;20045;-67
2022/06/26 09:51:40;;;;;;;365.37;346.87;;;23.70;58.20;;;;;;5000762;28;20052;-67
2022/06/26 09:54:06;;;;;;;328.60;312.33;;;23.70;58.20;;;;;;4987081;28;20414;-67
2022/06/26 09:56:33;;;;;;;353.13;335.03;;;23.60;58.80;;;;;;5004556;28;20120;-67
2022/06/26 09:58:59;;;;;;;331.20;314.80;;;23.60;59.20;;;;;;5004498;28;20464;-67
2022/06/26 10:07:02;;;;;;;328.10;311.57;;;24.00;58.00;;;;;;4990420;28;20451;-67
2022/06/26 10:09:29;;;;;;;305.60;290.40;;;24.20;57.60;;;;;;4985632;28;20367;-67
2022/06/26 10:11:58;;;;;;;355.43;336.50;;;24.30;57.10;;;;;;5003751;28;20073;-67
2022/06/26 10:14:32;;;;;;;367.43;348.03;;;24.40;57.00;;;;;;5004110;28;20037;-67
2022/06/26 10:17:28;;;;;;;349.23;331.17;;;24.50;57.00;;;;;;5005109;28;20503;-67
2022/06/26 10:20:05;;;;;;;328.83;312.33;;;24.50;55.80;;;;;;5003885;28;20277;-67
2022/06/26 10:22:39;;;;;;;387.00;367.37;;;24.50;57.10;;;;;;5004217;28;20069;-67
2022/06/26 10:25:05;;;;;;;342.95;325.75;;;24.30;57.50;;;;;;4998257;28;20041;-67
2022/06/26 10:27:33;;;;;;;334.30;317.37;;;24.40;57.80;;;;;;5004558;28;20049;-67
2022/06/26 10:30:03;;;;;;;420.07;398.77;;;24.50;57.70;;;;;;5004662;28;20050;-67
2022/06/26 10:32:29;;;;;;;367.60;349.07;;;24.40;55.40;;;;;;5004092;28;20053;-67
2022/06/26 10:34:55;;;;;;;362.73;345.20;;;24.40;57.40;;;;;;4978904;28;20695;-67
2022/06/26 10:37:21;;;;;;;372.83;354.23;;;24.30;56.50;;;;;;4984318;28;21082;-67
2022/06/26 10:39:49;;;;;;;381.10;362.33;;;24.40;57.70;;;;;;4985935;28;20411;-68
2022/06/26 10:45:10;;;;;;;321.70;305.50;;;24.30;56.40;;;;;;5018141;28;20042;-67
2022/06/26 10:47:49;;;;;;;378.97;360.23;;;24.30;57.20;;;;;;5002321;28;20056;-67
2022/06/26 10:50:39;;;;;;;407.03;386.30;;;24.60;57.40;;;;;;5002361;28;20034;-67
2022/06/26 10:53:13;;;;;;;413.33;391.53;;;24.80;55.50;;;;;;5001085;28;20131;-67
2022/06/26 10:55:41;;;;;;;423.42;401.25;;;24.60;55.50;;;;;;5002901;28;20060;-67
2022/06/26 10:58:07;;;;;;;356.57;338.57;;;24.20;55.20;;;;;;5014156;28;20073;-67
2022/06/26 11:00:33;;;;;;;380.67;361.87;;;24.20;56.10;;;;;;5000520;28;20034;-67
2022/06/26 11:02:59;;;;;;;361.70;342.87;;;24.20;56.40;;;;;;4986666;28;20085;-67
2022/06/26 11:05:27;;;;;;;364.60;345.73;;;24.30;56.30;;;;;;4986944;28;20042;-67
2022/06/26 11:07:53;;;;;;;346.30;328.80;;;24.40;56.20;;;;;;5002549;28;20447;-67
2022/06/26 11:10:27;;;;;;;427.93;405.60;;;24.50;56.70;;;;;;5001255;28;20668;-67
2022/06/26 11:12:53;;;;;;;441.13;418.10;;;24.60;55.30;;;;;;5003062;28;20056;-67
2022/06/26 11:15:34;;;;;;;373.80;353.73;;;24.30;55.10;;;;;;5003287;28;20456;-67
2022/06/26 11:18:02;;;;;;;420.90;398.77;;;24.20;54.60;;;;;;5003020;28;20044;-67
2022/06/26 11:20:51;;;;;;;417.77;395.53;;;24.20;56.00;;;;;;5001703;28;20050;-67
2022/06/26 11:23:35;;;;;;;398.17;376.80;;;24.30;55.80;;;;;;5001799;28;20041;-67
2022/06/26 11:26:11;;;;;;;398.13;377.53;;;24.50;55.30;;;;;;5003250;28;20048;-67
2022/06/26 11:28:42;;;;;;;391.20;371.37;;;24.50;54.50;;;;;;5000335;28;20060;-67
2022/06/26 11:31:11;;;;;;;429.47;408.37;;;24.50;54.00;;;;;;5002991;28;20054;-68
2022/06/26 11:33:39;;;;;;;414.97;393.23;;;24.60;53.40;;;;;;5002195;28;20042;-67
2022/06/26 11:36:13;;;;;;;419.60;397.63;;;24.70;54.60;;;;;;4985077;28;20042;-67
2022/06/26 11:38:46;;;;;;;370.08;350.38;;;24.90;54.40;;;;;;4984050;28;20041;-67
2022/06/26 11:41:11;;;;;;;421.30;399.13;;;25.10;54.00;;;;;;4997437;28;20046;-67
2022/06/26 11:43:45;;;;;;;429.80;407.40;;;25.20;53.70;;;;;;4981790;28;20392;-67
2022/06/26 11:46:11;;;;;;;437.60;414.30;;;25.00;53.50;;;;;;4994522;28;20097;-67
2022/06/26 11:48:37;;;;;;;414.57;392.47;;;24.90;54.00;;;;;;5003631;28;20038;-67
2022/06/26 11:51:02;;;;;;;415.07;392.97;;;24.80;54.60;;;;;;5002831;28;20042;-67
2022/06/26 11:53:31;;;;;;;364.03;345.80;;;24.90;55.00;;;;;;4986092;28;20045;-67
2022/06/26 11:56:02;;;;;;;404.60;384.00;;;25.00;53.90;;;;;;4974521;28;20080;-67
2022/06/26 11:58:30;;;;;;;449.63;426.30;;;25.10;53.90;;;;;;4987400;28;20042;-67
2022/06/26 12:01:11;;;;;;;385.00;365.83;;;24.80;53.10;;;;;;5000226;28;20126;-67
2022/06/26 12:03:49;;;;;;;345.50;328.27;;;24.80;52.70;;;;;;5000375;28;20592;-67
2022/06/26 12:06:41;;;;;;;376.33;357.23;;;24.90;53.00;;;;;;5001349;28;20034;-67
2022/06/26 12:09:28;;;;;;;423.90;402.27;;;24.90;52.70;;;;;;5005429;28;20100;-67
2022/06/26 12:11:55;;;;;;;381.00;361.40;;;25.20;53.10;;;;;;5004610;28;20125;-67
2022/06/26 12:14:24;;;;;;;427.33;405.70;;;24.90;54.30;;;;;;5006795;28;20064;-68
2022/06/26 12:16:59;;;;;;;375.20;356.43;;;25.10;53.40;;;;;;4991905;28;20088;-68
2022/06/26 12:19:26;;;;;;;407.33;386.70;;;25.10;52.50;;;;;;5004375;28;20038;-68
2022/06/26 12:21:53;;;;;;;366.50;347.97;;;25.20;51.40;;;;;;5007240;28;20049;-68
2022/06/26 12:24:20;;;;;;;371.47;353.13;;;25.40;51.90;;;;;;5006957;28;20050;-68